sensor_id;sensor_type;location;lat;lon;timestamp;P1;durP1;ratioP1;P2;durP2;ratioP2
13607;SDS011;6875;50.852;5.672;2023-01-29T00:01:26;21.67;;;15.57;;
13607;SDS011;6875;50.852;5.672;2023-01-29T00:03:53;21.70;;;14.83;;
13607;SDS011;6875;50.852;5.672;2023-01-29T00:06:19;24.67;;;15.20;;
13607;SDS011;6875;50.852;5.672;2023-01-29T00:08:48;25.50;;;15.50;;
13607;SDS011;6875;50.852;5.672;2023-01-29T00:11:15;25.63;;;16.03;;
13607;SDS011;6875;50.852;5.672;2023-01-29T00:13:44;24.17;;;15.47;;
13607;SDS011;6875;50.852;5.672;2023-01-29T00:16:11;23.17;;;15.30;;
13607;SDS011;6875;50.852;5.672;2023-01-29T00:18:37;23.03;;;15.20;;
13607;SDS011;6875;50.852;5.672;2023-01-29T00:21:07;25.47;;;15.50;;
13607;SDS011;6875;50.852;5.672;2023-01-29T00:23:34;25.67;;;16.60;;
13607;SDS011;6875;50.852;5.672;2023-01-29T00:26:02;25.37;;;15.27;;
13607;SDS011;6875;50.852;5.672;2023-01-29T00:28:28;28.23;;;16.30;;
13607;SDS011;6875;50.852;5.672;2023-01-29T00:30:55;24.60;;;15.30;;
13607;SDS011;6875;50.852;5.672;2023-01-29T00:33:22;25.57;;;16.33;;
13607;SDS011;6875;50.852;5.672;2023-01-29T00:35:48;25.67;;;16.53;;
13607;SDS011;6875;50.852;5.672;2023-01-29T00:38:15;26.97;;;17.27;;
13607;SDS011;6875;50.852;5.672;2023-01-29T00:40:41;26.73;;;16.07;;
13607;SDS011;6875;50.852;5.672;2023-01-29T00:43:27;27.67;;;16.90;;
13607;SDS011;6875;50.852;5.672;2023-01-29T00:46:11;27.83;;;17.70;;
13607;SDS011;6875;50.852;5.672;2023-01-29T00:48:37;28.57;;;17.43;;
13607;SDS011;6875;50.852;5.672;2023-01-29T00:51:04;27.27;;;15.70;;
13607;SDS011;6875;50.852;5.672;2023-01-29T00:53:31;29.40;;;18.77;;
13607;SDS011;6875;50.852;5.672;2023-01-29T00:55:57;26.73;;;18.20;;
13607;SDS011;6875;50.852;5.672;2023-01-29T00:58:24;37.30;;;19.30;;
13607;SDS011;6875;50.852;5.672;2023-01-29T01:00:59;28.53;;;16.90;;
13607;SDS011;6875;50.852;5.672;2023-01-29T01:03:27;30.10;;;17.97;;
13607;SDS011;6875;50.852;5.672;2023-01-29T01:06:03;24.93;;;16.50;;
13607;SDS011;6875;50.852;5.672;2023-01-29T01:08:30;27.50;;;18.30;;
13607;SDS011;6875;50.852;5.672;2023-01-29T01:11:14;30.87;;;18.40;;
13607;SDS011;6875;50.852;5.672;2023-01-29T01:13:40;28.43;;;17.90;;
13607;SDS011;6875;50.852;5.672;2023-01-29T01:16:09;29.97;;;18.73;;
13607;SDS011;6875;50.852;5.672;2023-01-29T01:18:36;30.80;;;18.57;;
13607;SDS011;6875;50.852;5.672;2023-01-29T01:21:03;29.40;;;18.17;;
13607;SDS011;6875;50.852;5.672;2023-01-29T01:23:30;29.83;;;17.10;;
13607;SDS011;6875;50.852;5.672;2023-01-29T01:25:57;26.70;;;17.43;;
13607;SDS011;6875;50.852;5.672;2023-01-29T01:28:24;27.37;;;17.13;;
13607;SDS011;6875;50.852;5.672;2023-01-29T01:30:50;28.97;;;18.07;;
13607;SDS011;6875;50.852;5.672;2023-01-29T01:33:18;25.80;;;16.70;;
13607;SDS011;6875;50.852;5.672;2023-01-29T01:35:45;28.53;;;18.03;;
13607;SDS011;6875;50.852;5.672;2023-01-29T01:38:12;27.43;;;17.40;;
13607;SDS011;6875;50.852;5.672;2023-01-29T01:40:42;24.20;;;15.77;;
13607;SDS011;6875;50.852;5.672;2023-01-29T01:43:09;27.23;;;17.23;;
13607;SDS011;6875;50.852;5.672;2023-01-29T01:45:36;31.17;;;18.80;;
13607;SDS011;6875;50.852;5.672;2023-01-29T01:48:03;28.80;;;17.60;;
13607;SDS011;6875;50.852;5.672;2023-01-29T01:50:35;32.37;;;17.93;;
13607;SDS011;6875;50.852;5.672;2023-01-29T01:53:06;27.87;;;16.60;;
13607;SDS011;6875;50.852;5.672;2023-01-29T01:55:34;24.70;;;15.70;;
13607;SDS011;6875;50.852;5.672;2023-01-29T01:58:05;30.50;;;18.53;;
13607;SDS011;6875;50.852;5.672;2023-01-29T02:00:34;29.90;;;17.87;;
13607;SDS011;6875;50.852;5.672;2023-01-29T02:03:01;25.70;;;15.70;;
13607;SDS011;6875;50.852;5.672;2023-01-29T02:05:48;25.90;;;16.40;;
13607;SDS011;6875;50.852;5.672;2023-01-29T02:08:34;27.83;;;16.87;;
13607;SDS011;6875;50.852;5.672;2023-01-29T02:11:21;27.50;;;17.53;;
13607;SDS011;6875;50.852;5.672;2023-01-29T02:13:49;26.17;;;17.93;;
13607;SDS011;6875;50.852;5.672;2023-01-29T02:16:17;26.30;;;17.00;;
13607;SDS011;6875;50.852;5.672;2023-01-29T02:18:44;26.67;;;17.17;;
13607;SDS011;6875;50.852;5.672;2023-01-29T02:21:22;31.40;;;17.33;;
13607;SDS011;6875;50.852;5.672;2023-01-29T02:24:20;27.80;;;16.53;;
13607;SDS011;6875;50.852;5.672;2023-01-29T02:27:01;29.60;;;16.37;;
13607;SDS011;6875;50.852;5.672;2023-01-29T02:29:33;28.10;;;16.70;;
13607;SDS011;6875;50.852;5.672;2023-01-29T02:32:10;30.13;;;17.57;;
13607;SDS011;6875;50.852;5.672;2023-01-29T02:34:43;27.70;;;16.83;;
13607;SDS011;6875;50.852;5.672;2023-01-29T02:37:32;25.33;;;16.70;;
13607;SDS011;6875;50.852;5.672;2023-01-29T02:40:04;27.83;;;17.47;;
13607;SDS011;6875;50.852;5.672;2023-01-29T02:42:37;28.37;;;16.57;;
13607;SDS011;6875;50.852;5.672;2023-01-29T02:45:09;25.43;;;16.70;;
13607;SDS011;6875;50.852;5.672;2023-01-29T02:47:39;32.37;;;18.33;;
13607;SDS011;6875;50.852;5.672;2023-01-29T02:50:11;28.30;;;17.47;;
13607;SDS011;6875;50.852;5.672;2023-01-29T02:52:41;29.50;;;18.30;;
13607;SDS011;6875;50.852;5.672;2023-01-29T02:55:14;29.00;;;17.70;;
13607;SDS011;6875;50.852;5.672;2023-01-29T02:57:43;27.77;;;17.23;;
13607;SDS011;6875;50.852;5.672;2023-01-29T03:00:13;28.60;;;16.77;;
13607;SDS011;6875;50.852;5.672;2023-01-29T03:02:42;28.30;;;16.70;;
13607;SDS011;6875;50.852;5.672;2023-01-29T03:05:10;30.70;;;17.77;;
13607;SDS011;6875;50.852;5.672;2023-01-29T03:07:42;27.33;;;16.97;;
13607;SDS011;6875;50.852;5.672;2023-01-29T03:10:14;27.53;;;17.17;;
13607;SDS011;6875;50.852;5.672;2023-01-29T03:12:44;26.40;;;17.67;;
13607;SDS011;6875;50.852;5.672;2023-01-29T03:15:15;25.43;;;16.73;;
13607;SDS011;6875;50.852;5.672;2023-01-29T03:17:46;28.10;;;17.50;;
13607;SDS011;6875;50.852;5.672;2023-01-29T03:20:15;29.03;;;16.60;;
13607;SDS011;6875;50.852;5.672;2023-01-29T03:22:45;26.63;;;16.80;;
13607;SDS011;6875;50.852;5.672;2023-01-29T03:25:15;27.90;;;17.77;;
13607;SDS011;6875;50.852;5.672;2023-01-29T03:28:00;25.93;;;17.43;;
13607;SDS011;6875;50.852;5.672;2023-01-29T03:30:47;28.50;;;18.87;;
13607;SDS011;6875;50.852;5.672;2023-01-29T03:33:34;32.37;;;19.10;;
13607;SDS011;6875;50.852;5.672;2023-01-29T03:36:07;32.07;;;19.60;;
13607;SDS011;6875;50.852;5.672;2023-01-29T03:38:37;28.60;;;18.87;;
13607;SDS011;6875;50.852;5.672;2023-01-29T03:41:04;28.13;;;18.77;;
13607;SDS011;6875;50.852;5.672;2023-01-29T03:43:37;30.00;;;19.60;;
13607;SDS011;6875;50.852;5.672;2023-01-29T03:46:07;30.50;;;18.83;;
13607;SDS011;6875;50.852;5.672;2023-01-29T03:48:40;30.67;;;19.67;;
13607;SDS011;6875;50.852;5.672;2023-01-29T03:51:14;29.97;;;19.13;;
13607;SDS011;6875;50.852;5.672;2023-01-29T03:53:46;29.20;;;19.07;;
13607;SDS011;6875;50.852;5.672;2023-01-29T03:56:19;31.33;;;19.77;;
13607;SDS011;6875;50.852;5.672;2023-01-29T03:58:54;29.23;;;19.47;;
13607;SDS011;6875;50.852;5.672;2023-01-29T04:01:26;32.10;;;19.57;;
13607;SDS011;6875;50.852;5.672;2023-01-29T04:03:54;29.73;;;18.97;;
13607;SDS011;6875;50.852;5.672;2023-01-29T04:06:24;31.00;;;19.33;;
13607;SDS011;6875;50.852;5.672;2023-01-29T04:08:53;30.50;;;20.53;;
13607;SDS011;6875;50.852;5.672;2023-01-29T04:11:22;33.20;;;20.83;;
13607;SDS011;6875;50.852;5.672;2023-01-29T04:13:50;38.50;;;20.60;;
13607;SDS011;6875;50.852;5.672;2023-01-29T04:16:19;30.77;;;18.83;;
13607;SDS011;6875;50.852;5.672;2023-01-29T04:18:49;30.17;;;19.50;;
13607;SDS011;6875;50.852;5.672;2023-01-29T04:21:16;31.17;;;19.10;;
13607;SDS011;6875;50.852;5.672;2023-01-29T04:23:43;31.43;;;19.63;;
13607;SDS011;6875;50.852;5.672;2023-01-29T04:26:18;29.97;;;18.87;;
13607;SDS011;6875;50.852;5.672;2023-01-29T04:28:57;31.40;;;19.50;;
13607;SDS011;6875;50.852;5.672;2023-01-29T04:31:31;26.80;;;18.33;;
13607;SDS011;6875;50.852;5.672;2023-01-29T04:34:03;32.60;;;19.20;;
13607;SDS011;6875;50.852;5.672;2023-01-29T04:36:40;35.63;;;21.17;;
13607;SDS011;6875;50.852;5.672;2023-01-29T04:39:15;32.23;;;19.23;;
13607;SDS011;6875;50.852;5.672;2023-01-29T04:41:46;28.83;;;19.33;;
13607;SDS011;6875;50.852;5.672;2023-01-29T04:44:17;32.53;;;19.73;;
13607;SDS011;6875;50.852;5.672;2023-01-29T04:46:48;34.10;;;20.57;;
13607;SDS011;6875;50.852;5.672;2023-01-29T04:49:23;30.83;;;19.83;;
13607;SDS011;6875;50.852;5.672;2023-01-29T04:51:56;33.50;;;21.00;;
13607;SDS011;6875;50.852;5.672;2023-01-29T04:54:28;29.40;;;18.60;;
13607;SDS011;6875;50.852;5.672;2023-01-29T04:57:01;29.87;;;19.37;;
13607;SDS011;6875;50.852;5.672;2023-01-29T04:59:32;31.07;;;18.97;;
13607;SDS011;6875;50.852;5.672;2023-01-29T05:02:01;31.77;;;19.70;;
13607;SDS011;6875;50.852;5.672;2023-01-29T05:04:31;28.83;;;19.60;;
13607;SDS011;6875;50.852;5.672;2023-01-29T05:06:59;31.50;;;19.50;;
13607;SDS011;6875;50.852;5.672;2023-01-29T05:09:28;33.10;;;19.10;;
13607;SDS011;6875;50.852;5.672;2023-01-29T05:11:55;29.00;;;17.53;;
13607;SDS011;6875;50.852;5.672;2023-01-29T05:14:22;29.30;;;18.43;;
13607;SDS011;6875;50.852;5.672;2023-01-29T05:16:50;29.77;;;18.37;;
13607;SDS011;6875;50.852;5.672;2023-01-29T05:19:18;30.50;;;18.90;;
13607;SDS011;6875;50.852;5.672;2023-01-29T05:21:46;32.80;;;19.73;;
13607;SDS011;6875;50.852;5.672;2023-01-29T05:24:15;30.73;;;19.07;;
13607;SDS011;6875;50.852;5.672;2023-01-29T05:26:42;28.90;;;18.53;;
13607;SDS011;6875;50.852;5.672;2023-01-29T05:29:27;29.47;;;19.07;;
13607;SDS011;6875;50.852;5.672;2023-01-29T05:31:54;30.53;;;19.17;;
13607;SDS011;6875;50.852;5.672;2023-01-29T05:34:21;32.23;;;19.83;;
13607;SDS011;6875;50.852;5.672;2023-01-29T05:36:49;29.87;;;19.60;;
13607;SDS011;6875;50.852;5.672;2023-01-29T05:39:15;29.43;;;18.47;;
13607;SDS011;6875;50.852;5.672;2023-01-29T05:41:42;30.07;;;18.60;;
13607;SDS011;6875;50.852;5.672;2023-01-29T05:44:09;32.30;;;20.60;;
13607;SDS011;6875;50.852;5.672;2023-01-29T05:46:35;34.13;;;22.10;;
13607;SDS011;6875;50.852;5.672;2023-01-29T05:49:02;31.57;;;20.60;;
13607;SDS011;6875;50.852;5.672;2023-01-29T05:51:29;33.77;;;21.10;;
13607;SDS011;6875;50.852;5.672;2023-01-29T05:53:57;32.80;;;21.30;;
13607;SDS011;6875;50.852;5.672;2023-01-29T05:56:23;33.23;;;20.83;;
13607;SDS011;6875;50.852;5.672;2023-01-29T05:58:50;33.27;;;20.70;;
13607;SDS011;6875;50.852;5.672;2023-01-29T06:01:18;33.60;;;21.23;;
13607;SDS011;6875;50.852;5.672;2023-01-29T06:03:45;33.87;;;21.17;;
13607;SDS011;6875;50.852;5.672;2023-01-29T06:06:12;33.87;;;21.47;;
13607;SDS011;6875;50.852;5.672;2023-01-29T06:08:39;33.60;;;21.77;;
13607;SDS011;6875;50.852;5.672;2023-01-29T06:11:07;34.60;;;21.67;;
13607;SDS011;6875;50.852;5.672;2023-01-29T06:13:35;34.03;;;22.10;;
13607;SDS011;6875;50.852;5.672;2023-01-29T06:16:03;33.67;;;21.27;;
13607;SDS011;6875;50.852;5.672;2023-01-29T06:18:30;32.63;;;21.93;;
13607;SDS011;6875;50.852;5.672;2023-01-29T06:20:58;34.63;;;22.20;;
13607;SDS011;6875;50.852;5.672;2023-01-29T06:23:25;32.63;;;21.40;;
13607;SDS011;6875;50.852;5.672;2023-01-29T06:25:52;34.63;;;20.67;;
13607;SDS011;6875;50.852;5.672;2023-01-29T06:28:20;32.80;;;21.33;;
13607;SDS011;6875;50.852;5.672;2023-01-29T06:30:46;27.70;;;19.83;;
13607;SDS011;6875;50.852;5.672;2023-01-29T06:33:13;31.40;;;20.67;;
13607;SDS011;6875;50.852;5.672;2023-01-29T06:35:39;33.47;;;20.87;;
13607;SDS011;6875;50.852;5.672;2023-01-29T06:38:06;28.33;;;19.43;;
13607;SDS011;6875;50.852;5.672;2023-01-29T06:40:32;32.57;;;21.20;;
13607;SDS011;6875;50.852;5.672;2023-01-29T06:42:59;29.67;;;20.40;;
13607;SDS011;6875;50.852;5.672;2023-01-29T06:45:27;29.63;;;19.90;;
13607;SDS011;6875;50.852;5.672;2023-01-29T06:47:54;31.17;;;19.70;;
13607;SDS011;6875;50.852;5.672;2023-01-29T06:50:21;32.83;;;21.27;;
13607;SDS011;6875;50.852;5.672;2023-01-29T06:52:47;34.23;;;21.93;;
13607;SDS011;6875;50.852;5.672;2023-01-29T06:55:14;32.77;;;20.27;;
13607;SDS011;6875;50.852;5.672;2023-01-29T06:57:41;33.33;;;21.73;;
13607;SDS011;6875;50.852;5.672;2023-01-29T07:00:08;33.70;;;21.27;;
13607;SDS011;6875;50.852;5.672;2023-01-29T07:02:36;29.07;;;20.17;;
13607;SDS011;6875;50.852;5.672;2023-01-29T07:05:03;30.50;;;20.27;;
13607;SDS011;6875;50.852;5.672;2023-01-29T07:07:30;31.00;;;21.13;;
13607;SDS011;6875;50.852;5.672;2023-01-29T07:09:57;29.73;;;19.50;;
13607;SDS011;6875;50.852;5.672;2023-01-29T07:12:23;30.77;;;20.27;;
13607;SDS011;6875;50.852;5.672;2023-01-29T07:14:50;28.73;;;19.33;;
13607;SDS011;6875;50.852;5.672;2023-01-29T07:17:16;30.07;;;19.77;;
13607;SDS011;6875;50.852;5.672;2023-01-29T07:19:45;26.77;;;18.77;;
13607;SDS011;6875;50.852;5.672;2023-01-29T07:22:12;29.30;;;19.43;;
13607;SDS011;6875;50.852;5.672;2023-01-29T07:24:40;28.60;;;19.67;;
13607;SDS011;6875;50.852;5.672;2023-01-29T07:27:06;27.00;;;18.37;;
13607;SDS011;6875;50.852;5.672;2023-01-29T07:29:33;32.33;;;20.03;;
13607;SDS011;6875;50.852;5.672;2023-01-29T07:32:00;29.20;;;19.00;;
13607;SDS011;6875;50.852;5.672;2023-01-29T07:34:26;29.53;;;19.17;;
13607;SDS011;6875;50.852;5.672;2023-01-29T07:36:55;29.87;;;19.23;;
13607;SDS011;6875;50.852;5.672;2023-01-29T07:39:22;27.33;;;18.83;;
13607;SDS011;6875;50.852;5.672;2023-01-29T07:41:48;31.90;;;19.83;;
13607;SDS011;6875;50.852;5.672;2023-01-29T07:44:15;28.57;;;18.73;;
13607;SDS011;6875;50.852;5.672;2023-01-29T07:46:41;27.43;;;18.67;;
13607;SDS011;6875;50.852;5.672;2023-01-29T07:49:08;27.57;;;18.83;;
13607;SDS011;6875;50.852;5.672;2023-01-29T07:51:35;32.47;;;19.80;;
13607;SDS011;6875;50.852;5.672;2023-01-29T07:54:03;29.77;;;19.33;;
13607;SDS011;6875;50.852;5.672;2023-01-29T07:56:29;30.00;;;18.40;;
13607;SDS011;6875;50.852;5.672;2023-01-29T07:58:56;29.50;;;18.40;;
13607;SDS011;6875;50.852;5.672;2023-01-29T08:01:23;29.13;;;18.70;;
13607;SDS011;6875;50.852;5.672;2023-01-29T08:03:49;29.47;;;18.87;;
13607;SDS011;6875;50.852;5.672;2023-01-29T08:06:16;24.63;;;17.13;;
13607;SDS011;6875;50.852;5.672;2023-01-29T08:08:43;26.10;;;17.50;;
13607;SDS011;6875;50.852;5.672;2023-01-29T08:11:11;30.67;;;17.07;;
13607;SDS011;6875;50.852;5.672;2023-01-29T08:13:39;27.47;;;18.83;;
13607;SDS011;6875;50.852;5.672;2023-01-29T08:16:06;24.27;;;16.80;;
13607;SDS011;6875;50.852;5.672;2023-01-29T08:18:33;25.00;;;17.67;;
13607;SDS011;6875;50.852;5.672;2023-01-29T08:21:00;25.87;;;18.63;;
13607;SDS011;6875;50.852;5.672;2023-01-29T08:23:27;19.30;;;13.40;;
13607;SDS011;6875;50.852;5.672;2023-01-29T08:25:53;20.53;;;14.67;;
13607;SDS011;6875;50.852;5.672;2023-01-29T08:28:21;24.07;;;16.90;;
13607;SDS011;6875;50.852;5.672;2023-01-29T08:30:48;26.00;;;16.70;;
13607;SDS011;6875;50.852;5.672;2023-01-29T08:33:14;23.60;;;17.13;;
13607;SDS011;6875;50.852;5.672;2023-01-29T08:35:41;25.43;;;16.10;;
13607;SDS011;6875;50.852;5.672;2023-01-29T08:38:07;19.33;;;14.23;;
13607;SDS011;6875;50.852;5.672;2023-01-29T08:40:34;19.90;;;14.83;;
13607;SDS011;6875;50.852;5.672;2023-01-29T08:43:01;23.37;;;16.43;;
13607;SDS011;6875;50.852;5.672;2023-01-29T08:45:30;25.30;;;16.50;;
13607;SDS011;6875;50.852;5.672;2023-01-29T08:47:58;22.80;;;14.70;;
13607;SDS011;6875;50.852;5.672;2023-01-29T08:50:25;22.97;;;16.20;;
13607;SDS011;6875;50.852;5.672;2023-01-29T08:52:52;24.60;;;15.73;;
13607;SDS011;6875;50.852;5.672;2023-01-29T08:55:22;23.63;;;13.97;;
13607;SDS011;6875;50.852;5.672;2023-01-29T08:57:49;19.53;;;14.37;;
13607;SDS011;6875;50.852;5.672;2023-01-29T09:00:16;21.40;;;15.50;;
13607;SDS011;6875;50.852;5.672;2023-01-29T09:02:44;24.20;;;15.93;;
13607;SDS011;6875;50.852;5.672;2023-01-29T09:05:11;22.00;;;15.07;;
13607;SDS011;6875;50.852;5.672;2023-01-29T09:07:37;29.47;;;15.23;;
13607;SDS011;6875;50.852;5.672;2023-01-29T09:10:04;21.33;;;14.43;;
13607;SDS011;6875;50.852;5.672;2023-01-29T09:12:32;19.57;;;13.57;;
13607;SDS011;6875;50.852;5.672;2023-01-29T09:14:59;21.93;;;15.33;;
13607;SDS011;6875;50.852;5.672;2023-01-29T09:17:25;25.27;;;15.73;;
13607;SDS011;6875;50.852;5.672;2023-01-29T09:19:53;21.30;;;14.67;;
13607;SDS011;6875;50.852;5.672;2023-01-29T09:22:20;22.43;;;14.87;;
13607;SDS011;6875;50.852;5.672;2023-01-29T09:24:47;20.13;;;13.53;;
13607;SDS011;6875;50.852;5.672;2023-01-29T09:27:13;22.37;;;14.93;;
13607;SDS011;6875;50.852;5.672;2023-01-29T09:29:40;19.70;;;13.03;;
13607;SDS011;6875;50.852;5.672;2023-01-29T09:32:07;19.97;;;13.43;;
13607;SDS011;6875;50.852;5.672;2023-01-29T09:34:34;17.73;;;11.23;;
13607;SDS011;6875;50.852;5.672;2023-01-29T09:37:02;21.67;;;13.97;;
13607;SDS011;6875;50.852;5.672;2023-01-29T09:39:29;17.50;;;13.20;;
13607;SDS011;6875;50.852;5.672;2023-01-29T09:41:57;19.33;;;12.23;;
13607;SDS011;6875;50.852;5.672;2023-01-29T09:44:32;20.43;;;13.57;;
13607;SDS011;6875;50.852;5.672;2023-01-29T09:47:10;18.03;;;11.67;;
13607;SDS011;6875;50.852;5.672;2023-01-29T09:49:38;19.33;;;12.43;;
13607;SDS011;6875;50.852;5.672;2023-01-29T09:52:09;18.70;;;12.83;;
13607;SDS011;6875;50.852;5.672;2023-01-29T09:54:44;16.57;;;11.70;;
13607;SDS011;6875;50.852;5.672;2023-01-29T09:57:16;17.53;;;11.13;;
13607;SDS011;6875;50.852;5.672;2023-01-29T09:59:45;20.07;;;12.57;;
13607;SDS011;6875;50.852;5.672;2023-01-29T10:02:16;18.70;;;12.97;;
13607;SDS011;6875;50.852;5.672;2023-01-29T10:05:02;17.77;;;12.63;;
13607;SDS011;6875;50.852;5.672;2023-01-29T10:10:47;21.83;;;12.73;;
13607;SDS011;6875;50.852;5.672;2023-01-29T10:13:18;16.83;;;12.60;;
13607;SDS011;6875;50.852;5.672;2023-01-29T10:15:54;16.80;;;12.20;;
13607;SDS011;6875;50.852;5.672;2023-01-29T10:18:37;17.90;;;12.57;;
13607;SDS011;6875;50.852;5.672;2023-01-29T10:21:18;19.53;;;14.33;;
13607;SDS011;6875;50.852;5.672;2023-01-29T10:23:56;21.07;;;14.13;;
13607;SDS011;6875;50.852;5.672;2023-01-29T10:26:27;19.77;;;13.30;;
13607;SDS011;6875;50.852;5.672;2023-01-29T10:28:54;20.13;;;13.80;;
13607;SDS011;6875;50.852;5.672;2023-01-29T10:31:23;20.70;;;13.77;;
13607;SDS011;6875;50.852;5.672;2023-01-29T10:33:56;21.93;;;14.67;;
13607;SDS011;6875;50.852;5.672;2023-01-29T10:36:27;19.50;;;14.33;;
13607;SDS011;6875;50.852;5.672;2023-01-29T10:38:59;23.03;;;13.17;;
13607;SDS011;6875;50.852;5.672;2023-01-29T10:44:42;20.93;;;14.43;;
13607;SDS011;6875;50.852;5.672;2023-01-29T10:47:29;20.53;;;13.60;;
13607;SDS011;6875;50.852;5.672;2023-01-29T10:50:15;21.13;;;14.50;;
13607;SDS011;6875;50.852;5.672;2023-01-29T10:52:49;21.93;;;15.30;;
13607;SDS011;6875;50.852;5.672;2023-01-29T10:55:36;20.73;;;14.63;;
13607;SDS011;6875;50.852;5.672;2023-01-29T10:58:08;22.83;;;15.20;;
13607;SDS011;6875;50.852;5.672;2023-01-29T11:00:43;20.60;;;15.00;;
13607;SDS011;6875;50.852;5.672;2023-01-29T11:03:13;22.17;;;15.10;;
13607;SDS011;6875;50.852;5.672;2023-01-29T11:05:42;18.97;;;13.70;;
13607;SDS011;6875;50.852;5.672;2023-01-29T11:08:11;24.03;;;16.37;;
13607;SDS011;6875;50.852;5.672;2023-01-29T11:10:42;21.33;;;15.17;;
13607;SDS011;6875;50.852;5.672;2023-01-29T11:13:12;21.30;;;15.43;;
13607;SDS011;6875;50.852;5.672;2023-01-29T11:15:40;19.63;;;14.63;;
13607;SDS011;6875;50.852;5.672;2023-01-29T11:18:07;23.30;;;15.10;;
13607;SDS011;6875;50.852;5.672;2023-01-29T11:20:38;21.90;;;14.97;;
13607;SDS011;6875;50.852;5.672;2023-01-29T11:23:05;18.93;;;13.77;;
13607;SDS011;6875;50.852;5.672;2023-01-29T11:25:31;20.00;;;13.97;;
13607;SDS011;6875;50.852;5.672;2023-01-29T11:28:00;21.47;;;15.43;;
13607;SDS011;6875;50.852;5.672;2023-01-29T11:30:27;20.57;;;15.17;;
13607;SDS011;6875;50.852;5.672;2023-01-29T11:32:57;20.77;;;14.67;;
13607;SDS011;6875;50.852;5.672;2023-01-29T11:35:31;21.90;;;14.80;;
13607;SDS011;6875;50.852;5.672;2023-01-29T11:38:05;22.20;;;14.60;;
13607;SDS011;6875;50.852;5.672;2023-01-29T11:40:34;22.33;;;15.20;;
13607;SDS011;6875;50.852;5.672;2023-01-29T11:45:56;21.90;;;15.17;;
13607;SDS011;6875;50.852;5.672;2023-01-29T11:48:25;24.13;;;15.60;;
13607;SDS011;6875;50.852;5.672;2023-01-29T11:50:58;22.10;;;15.37;;
13607;SDS011;6875;50.852;5.672;2023-01-29T11:53:30;24.00;;;15.33;;
13607;SDS011;6875;50.852;5.672;2023-01-29T11:56:00;22.47;;;15.13;;
13607;SDS011;6875;50.852;5.672;2023-01-29T11:58:31;23.60;;;16.00;;
13607;SDS011;6875;50.852;5.672;2023-01-29T12:00:59;23.23;;;15.57;;
13607;SDS011;6875;50.852;5.672;2023-01-29T12:03:28;24.30;;;16.90;;
13607;SDS011;6875;50.852;5.672;2023-01-29T12:06:00;25.90;;;16.47;;
13607;SDS011;6875;50.852;5.672;2023-01-29T12:08:30;24.47;;;16.27;;
13607;SDS011;6875;50.852;5.672;2023-01-29T12:11:05;21.73;;;15.70;;
13607;SDS011;6875;50.852;5.672;2023-01-29T12:13:34;24.87;;;16.83;;
13607;SDS011;6875;50.852;5.672;2023-01-29T12:16:09;25.00;;;16.90;;
13607;SDS011;6875;50.852;5.672;2023-01-29T12:18:40;26.90;;;16.57;;
13607;SDS011;6875;50.852;5.672;2023-01-29T12:21:10;26.93;;;16.07;;
13607;SDS011;6875;50.852;5.672;2023-01-29T12:23:40;22.70;;;15.37;;
13607;SDS011;6875;50.852;5.672;2023-01-29T12:26:12;24.07;;;16.40;;
13607;SDS011;6875;50.852;5.672;2023-01-29T12:28:45;24.50;;;16.93;;
13607;SDS011;6875;50.852;5.672;2023-01-29T12:31:20;26.10;;;16.53;;
13607;SDS011;6875;50.852;5.672;2023-01-29T12:33:52;24.00;;;17.47;;
13607;SDS011;6875;50.852;5.672;2023-01-29T12:36:23;23.57;;;17.07;;
13607;SDS011;6875;50.852;5.672;2023-01-29T12:38:53;26.87;;;17.37;;
13607;SDS011;6875;50.852;5.672;2023-01-29T12:41:30;24.40;;;17.33;;
13607;SDS011;6875;50.852;5.672;2023-01-29T12:44:03;24.43;;;16.87;;
13607;SDS011;6875;50.852;5.672;2023-01-29T12:46:33;26.53;;;18.17;;
13607;SDS011;6875;50.852;5.672;2023-01-29T12:49:05;26.07;;;18.20;;
13607;SDS011;6875;50.852;5.672;2023-01-29T12:51:37;25.63;;;16.67;;
13607;SDS011;6875;50.852;5.672;2023-01-29T12:54:08;26.13;;;18.40;;
13607;SDS011;6875;50.852;5.672;2023-01-29T12:56:37;26.70;;;18.03;;
13607;SDS011;6875;50.852;5.672;2023-01-29T12:59:11;26.10;;;17.40;;
13607;SDS011;6875;50.852;5.672;2023-01-29T13:01:43;29.17;;;19.60;;
13607;SDS011;6875;50.852;5.672;2023-01-29T13:04:14;28.37;;;18.83;;
13607;SDS011;6875;50.852;5.672;2023-01-29T13:06:44;24.73;;;17.87;;
13607;SDS011;6875;50.852;5.672;2023-01-29T13:09:12;26.73;;;18.67;;
13607;SDS011;6875;50.852;5.672;2023-01-29T13:11:41;28.73;;;19.80;;
13607;SDS011;6875;50.852;5.672;2023-01-29T13:14:15;29.27;;;18.87;;
13607;SDS011;6875;50.852;5.672;2023-01-29T13:16:44;26.40;;;18.30;;
13607;SDS011;6875;50.852;5.672;2023-01-29T13:19:19;28.17;;;19.07;;
13607;SDS011;6875;50.852;5.672;2023-01-29T13:21:48;27.40;;;19.23;;
13607;SDS011;6875;50.852;5.672;2023-01-29T13:24:16;26.37;;;18.17;;
13607;SDS011;6875;50.852;5.672;2023-01-29T13:26:44;28.73;;;19.10;;
13607;SDS011;6875;50.852;5.672;2023-01-29T13:29:19;26.37;;;19.07;;
13607;SDS011;6875;50.852;5.672;2023-01-29T13:31:47;29.20;;;19.67;;
13607;SDS011;6875;50.852;5.672;2023-01-29T13:34:14;31.37;;;19.87;;
13607;SDS011;6875;50.852;5.672;2023-01-29T13:36:41;29.13;;;19.13;;
13607;SDS011;6875;50.852;5.672;2023-01-29T13:39:15;30.70;;;20.33;;
13607;SDS011;6875;50.852;5.672;2023-01-29T13:41:45;29.93;;;19.47;;
13607;SDS011;6875;50.852;5.672;2023-01-29T13:44:19;30.47;;;20.10;;
13607;SDS011;6875;50.852;5.672;2023-01-29T13:46:47;31.13;;;19.17;;
13607;SDS011;6875;50.852;5.672;2023-01-29T13:49:21;27.10;;;18.73;;
13607;SDS011;6875;50.852;5.672;2023-01-29T13:51:50;26.93;;;17.57;;
13607;SDS011;6875;50.852;5.672;2023-01-29T13:54:19;27.53;;;19.13;;
13607;SDS011;6875;50.852;5.672;2023-01-29T13:56:55;31.17;;;20.03;;
13607;SDS011;6875;50.852;5.672;2023-01-29T13:59:47;29.83;;;20.63;;
13607;SDS011;6875;50.852;5.672;2023-01-29T14:02:18;31.70;;;19.60;;
13607;SDS011;6875;50.852;5.672;2023-01-29T14:04:47;23.47;;;17.30;;
13607;SDS011;6875;50.852;5.672;2023-01-29T14:10:15;30.03;;;20.67;;
13607;SDS011;6875;50.852;5.672;2023-01-29T14:12:44;31.43;;;19.87;;
13607;SDS011;6875;50.852;5.672;2023-01-29T14:15:20;30.70;;;19.17;;
13607;SDS011;6875;50.852;5.672;2023-01-29T14:20:55;28.53;;;20.40;;
13607;SDS011;6875;50.852;5.672;2023-01-29T14:26:23;30.40;;;21.10;;
13607;SDS011;6875;50.852;5.672;2023-01-29T14:28:54;29.70;;;20.17;;
13607;SDS011;6875;50.852;5.672;2023-01-29T14:34:14;26.73;;;19.23;;
13607;SDS011;6875;50.852;5.672;2023-01-29T14:36:45;29.00;;;19.77;;
13607;SDS011;6875;50.852;5.672;2023-01-29T14:39:18;32.40;;;21.03;;
13607;SDS011;6875;50.852;5.672;2023-01-29T14:41:46;35.30;;;21.13;;
13607;SDS011;6875;50.852;5.672;2023-01-29T14:53:26;28.97;;;21.43;;
13607;SDS011;6875;50.852;5.672;2023-01-29T14:55:58;32.77;;;20.13;;
13607;SDS011;6875;50.852;5.672;2023-01-29T14:58:36;33.43;;;21.37;;
13607;SDS011;6875;50.852;5.672;2023-01-29T15:01:05;30.93;;;20.77;;
13607;SDS011;6875;50.852;5.672;2023-01-29T15:03:38;31.27;;;20.90;;
13607;SDS011;6875;50.852;5.672;2023-01-29T15:06:13;33.83;;;20.80;;
13607;SDS011;6875;50.852;5.672;2023-01-29T15:08:44;32.37;;;22.03;;
13607;SDS011;6875;50.852;5.672;2023-01-29T15:11:16;29.10;;;20.53;;
13607;SDS011;6875;50.852;5.672;2023-01-29T15:14:04;30.53;;;18.83;;
13607;SDS011;6875;50.852;5.672;2023-01-29T15:16:38;31.13;;;20.00;;
13607;SDS011;6875;50.852;5.672;2023-01-29T15:19:11;34.53;;;22.20;;
13607;SDS011;6875;50.852;5.672;2023-01-29T15:24:37;38.80;;;19.60;;